sensor_id;sensor_type;location;lat;lon;timestamp;P1;durP1;ratioP1;P2;durP2;ratioP2
44512;SDS011;30219;50.588;9.504;2022-09-09T00:03:59;8.68;;;1.35;;
44512;SDS011;30219;50.588;9.504;2022-09-09T00:06:42;4.50;;;1.55;;
44512;SDS011;30219;50.588;9.504;2022-09-09T00:09:16;7.72;;;1.73;;
44512;SDS011;30219;50.588;9.504;2022-09-09T00:11:46;4.32;;;1.25;;
44512;SDS011;30219;50.588;9.504;2022-09-09T00:17:35;7.32;;;1.25;;
44512;SDS011;30219;50.588;9.504;2022-09-09T00:20:14;6.75;;;1.60;;
44512;SDS011;30219;50.588;9.504;2022-09-09T00:25:37;5.80;;;1.33;;
44512;SDS011;30219;50.588;9.504;2022-09-09T00:28:26;7.10;;;1.50;;
44512;SDS011;30219;50.588;9.504;2022-09-09T00:33:33;8.40;;;1.58;;
44512;SDS011;30219;50.588;9.504;2022-09-09T00:35:59;7.50;;;0.98;;
44512;SDS011;30219;50.588;9.504;2022-09-09T00:38:34;16.40;;;2.00;;
44512;SDS011;30219;50.588;9.504;2022-09-09T00:41:09;22.10;;;2.42;;
44512;SDS011;30219;50.588;9.504;2022-09-09T00:43:40;12.63;;;1.85;;
44512;SDS011;30219;50.588;9.504;2022-09-09T00:51:30;25.48;;;2.75;;
44512;SDS011;30219;50.588;9.504;2022-09-09T01:00:01;11.23;;;2.00;;
44512;SDS011;30219;50.588;9.504;2022-09-09T01:08:40;11.73;;;1.75;;
44512;SDS011;30219;50.588;9.504;2022-09-09T01:11:10;13.95;;;2.72;;
44512;SDS011;30219;50.588;9.504;2022-09-09T01:16:56;3.05;;;1.10;;
44512;SDS011;30219;50.588;9.504;2022-09-09T01:19:27;11.88;;;2.08;;
44512;SDS011;30219;50.588;9.504;2022-09-09T01:22:08;5.10;;;1.30;;
44512;SDS011;30219;50.588;9.504;2022-09-09T01:27:50;7.90;;;2.55;;
44512;SDS011;30219;50.588;9.504;2022-09-09T01:30:18;5.13;;;1.88;;
44512;SDS011;30219;50.588;9.504;2022-09-09T01:32:46;6.82;;;2.08;;
44512;SDS011;30219;50.588;9.504;2022-09-09T01:35:29;7.85;;;1.90;;
44512;SDS011;30219;50.588;9.504;2022-09-09T01:38:10;10.70;;;2.28;;
44512;SDS011;30219;50.588;9.504;2022-09-09T01:40:36;12.70;;;2.00;;
44512;SDS011;30219;50.588;9.504;2022-09-09T01:43:02;13.20;;;2.83;;
44512;SDS011;30219;50.588;9.504;2022-09-09T01:45:28;15.50;;;2.78;;
44512;SDS011;30219;50.588;9.504;2022-09-09T01:47:55;9.57;;;2.30;;
44512;SDS011;30219;50.588;9.504;2022-09-09T01:50:22;14.75;;;3.03;;
44512;SDS011;30219;50.588;9.504;2022-09-09T01:52:52;20.27;;;2.53;;
44512;SDS011;30219;50.588;9.504;2022-09-09T01:55:38;19.40;;;2.20;;
44512;SDS011;30219;50.588;9.504;2022-09-09T02:01:17;13.27;;;1.80;;
44512;SDS011;30219;50.588;9.504;2022-09-09T02:04:01;8.25;;;1.15;;
44512;SDS011;30219;50.588;9.504;2022-09-09T02:06:35;11.55;;;1.73;;
44512;SDS011;30219;50.588;9.504;2022-09-09T02:09:04;4.53;;;1.20;;
44512;SDS011;30219;50.588;9.504;2022-09-09T02:11:32;10.73;;;1.88;;
44512;SDS011;30219;50.588;9.504;2022-09-09T02:16:55;7.75;;;1.60;;
44512;SDS011;30219;50.588;9.504;2022-09-09T02:19:32;4.20;;;1.13;;
44512;SDS011;30219;50.588;9.504;2022-09-09T02:21:59;8.40;;;1.50;;
44512;SDS011;30219;50.588;9.504;2022-09-09T02:24:26;9.93;;;1.50;;
44512;SDS011;30219;50.588;9.504;2022-09-09T02:26:54;3.65;;;1.10;;
44512;SDS011;30219;50.588;9.504;2022-09-09T02:29:24;5.80;;;1.50;;
44512;SDS011;30219;50.588;9.504;2022-09-09T02:31:52;8.77;;;1.60;;
44512;SDS011;30219;50.588;9.504;2022-09-09T02:34:21;6.60;;;1.00;;
44512;SDS011;30219;50.588;9.504;2022-09-09T02:36:49;3.67;;;1.08;;
44512;SDS011;30219;50.588;9.504;2022-09-09T02:39:17;3.45;;;0.82;;
44512;SDS011;30219;50.588;9.504;2022-09-09T02:41:43;3.00;;;1.08;;
44512;SDS011;30219;50.588;9.504;2022-09-09T02:44:12;7.70;;;1.30;;
44512;SDS011;30219;50.588;9.504;2022-09-09T02:49:17;8.77;;;1.05;;
44512;SDS011;30219;50.588;9.504;2022-09-09T02:52:05;3.67;;;1.00;;
44512;SDS011;30219;50.588;9.504;2022-09-09T02:54:43;7.55;;;1.17;;
44512;SDS011;30219;50.588;9.504;2022-09-09T02:57:17;5.00;;;1.30;;
44512;SDS011;30219;50.588;9.504;2022-09-09T02:59:50;7.75;;;1.50;;
44512;SDS011;30219;50.588;9.504;2022-09-09T03:02:17;6.25;;;1.20;;
44512;SDS011;30219;50.588;9.504;2022-09-09T03:04:43;5.40;;;1.10;;
44512;SDS011;30219;50.588;9.504;2022-09-09T03:07:10;3.10;;;0.98;;
44512;SDS011;30219;50.588;9.504;2022-09-09T03:09:37;4.40;;;1.33;;
44512;SDS011;30219;50.588;9.504;2022-09-09T03:12:02;5.85;;;0.98;;
44512;SDS011;30219;50.588;9.504;2022-09-09T03:14:32;5.18;;;1.27;;
44512;SDS011;30219;50.588;9.504;2022-09-09T03:16:57;8.68;;;1.20;;
44512;SDS011;30219;50.588;9.504;2022-09-09T03:19:25;7.18;;;0.90;;
44512;SDS011;30219;50.588;9.504;2022-09-09T03:21:52;5.80;;;0.95;;
44512;SDS011;30219;50.588;9.504;2022-09-09T03:24:18;8.25;;;1.20;;
44512;SDS011;30219;50.588;9.504;2022-09-09T03:26:44;5.68;;;1.10;;
44512;SDS011;30219;50.588;9.504;2022-09-09T03:29:11;3.53;;;1.33;;
44512;SDS011;30219;50.588;9.504;2022-09-09T03:31:37;4.25;;;1.15;;
44512;SDS011;30219;50.588;9.504;2022-09-09T03:34:04;3.45;;;1.10;;
44512;SDS011;30219;50.588;9.504;2022-09-09T03:36:30;2.58;;;1.08;;
44512;SDS011;30219;50.588;9.504;2022-09-09T03:38:56;4.22;;;0.93;;
44512;SDS011;30219;50.588;9.504;2022-09-09T03:41:23;4.25;;;1.10;;
44512;SDS011;30219;50.588;9.504;2022-09-09T03:43:49;4.82;;;0.90;;
44512;SDS011;30219;50.588;9.504;2022-09-09T03:46:16;3.42;;;1.10;;
44512;SDS011;30219;50.588;9.504;2022-09-09T03:48:42;5.85;;;1.30;;
44512;SDS011;30219;50.588;9.504;2022-09-09T03:51:08;4.93;;;1.23;;
44512;SDS011;30219;50.588;9.504;2022-09-09T03:53:33;4.57;;;1.42;;
44512;SDS011;30219;50.588;9.504;2022-09-09T03:55:59;7.82;;;1.42;;
44512;SDS011;30219;50.588;9.504;2022-09-09T03:58:25;4.78;;;0.90;;
44512;SDS011;30219;50.588;9.504;2022-09-09T04:00:52;6.70;;;1.30;;
44512;SDS011;30219;50.588;9.504;2022-09-09T04:03:19;6.93;;;1.52;;
44512;SDS011;30219;50.588;9.504;2022-09-09T04:05:48;8.15;;;1.80;;
44512;SDS011;30219;50.588;9.504;2022-09-09T04:08:14;6.20;;;2.20;;
44512;SDS011;30219;50.588;9.504;2022-09-09T04:10:39;18.70;;;3.92;;
44512;SDS011;30219;50.588;9.504;2022-09-09T04:13:05;9.63;;;1.90;;
44512;SDS011;30219;50.588;9.504;2022-09-09T04:15:31;11.15;;;2.88;;
44512;SDS011;30219;50.588;9.504;2022-09-09T04:17:58;9.73;;;2.35;;
44512;SDS011;30219;50.588;9.504;2022-09-09T04:20:23;14.15;;;2.78;;
44512;SDS011;30219;50.588;9.504;2022-09-09T04:22:49;11.57;;;2.30;;
44512;SDS011;30219;50.588;9.504;2022-09-09T04:25:15;7.03;;;3.03;;
44512;SDS011;30219;50.588;9.504;2022-09-09T04:27:40;10.60;;;3.20;;
44512;SDS011;30219;50.588;9.504;2022-09-09T04:30:07;11.88;;;3.90;;
44512;SDS011;30219;50.588;9.504;2022-09-09T04:32:34;10.23;;;4.53;;
44512;SDS011;30219;50.588;9.504;2022-09-09T04:35:00;14.15;;;5.10;;
44512;SDS011;30219;50.588;9.504;2022-09-09T04:37:26;15.77;;;5.32;;
44512;SDS011;30219;50.588;9.504;2022-09-09T04:39:51;21.73;;;5.80;;
44512;SDS011;30219;50.588;9.504;2022-09-09T04:42:17;22.30;;;8.05;;
44512;SDS011;30219;50.588;9.504;2022-09-09T04:44:44;18.98;;;5.63;;
44512;SDS011;30219;50.588;9.504;2022-09-09T04:47:10;13.40;;;4.68;;
44512;SDS011;30219;50.588;9.504;2022-09-09T04:49:36;16.35;;;5.57;;
44512;SDS011;30219;50.588;9.504;2022-09-09T04:52:02;13.20;;;4.53;;
44512;SDS011;30219;50.588;9.504;2022-09-09T04:54:28;15.95;;;4.93;;
44512;SDS011;30219;50.588;9.504;2022-09-09T04:56:54;14.30;;;4.00;;
44512;SDS011;30219;50.588;9.504;2022-09-09T04:59:20;12.32;;;4.65;;
44512;SDS011;30219;50.588;9.504;2022-09-09T05:01:46;17.60;;;4.60;;
44512;SDS011;30219;50.588;9.504;2022-09-09T05:04:13;13.43;;;4.72;;
44512;SDS011;30219;50.588;9.504;2022-09-09T05:06:41;7.03;;;3.22;;
44512;SDS011;30219;50.588;9.504;2022-09-09T05:09:07;11.43;;;3.58;;
44512;SDS011;30219;50.588;9.504;2022-09-09T05:11:33;14.07;;;3.83;;
44512;SDS011;30219;50.588;9.504;2022-09-09T05:14:01;11.55;;;3.45;;
44512;SDS011;30219;50.588;9.504;2022-09-09T05:16:28;10.38;;;3.03;;
44512;SDS011;30219;50.588;9.504;2022-09-09T05:18:54;9.15;;;2.92;;
44512;SDS011;30219;50.588;9.504;2022-09-09T05:21:20;13.93;;;3.47;;
44512;SDS011;30219;50.588;9.504;2022-09-09T05:23:48;17.98;;;4.07;;
44512;SDS011;30219;50.588;9.504;2022-09-09T05:26:17;17.00;;;3.80;;
44512;SDS011;30219;50.588;9.504;2022-09-09T05:28:45;25.50;;;4.07;;
44512;SDS011;30219;50.588;9.504;2022-09-09T05:31:12;14.10;;;2.75;;
44512;SDS011;30219;50.588;9.504;2022-09-09T05:33:43;13.35;;;2.40;;
44512;SDS011;30219;50.588;9.504;2022-09-09T05:36:11;10.47;;;2.30;;
44512;SDS011;30219;50.588;9.504;2022-09-09T05:38:42;5.72;;;1.42;;
44512;SDS011;30219;50.588;9.504;2022-09-09T05:41:09;5.93;;;1.77;;
44512;SDS011;30219;50.588;9.504;2022-09-09T05:43:36;5.38;;;1.70;;
44512;SDS011;30219;50.588;9.504;2022-09-09T05:46:06;6.22;;;1.45;;
44512;SDS011;30219;50.588;9.504;2022-09-09T05:48:41;8.18;;;1.58;;
44512;SDS011;30219;50.588;9.504;2022-09-09T05:51:09;14.10;;;1.70;;
44512;SDS011;30219;50.588;9.504;2022-09-09T05:53:37;20.00;;;2.33;;
44512;SDS011;30219;50.588;9.504;2022-09-09T05:58:31;8.02;;;1.95;;
44512;SDS011;30219;50.588;9.504;2022-09-09T06:01:01;14.85;;;1.70;;
44512;SDS011;30219;50.588;9.504;2022-09-09T06:03:35;5.32;;;1.15;;
44512;SDS011;30219;50.588;9.504;2022-09-09T06:06:05;7.63;;;1.60;;
44512;SDS011;30219;50.588;9.504;2022-09-09T06:08:39;4.68;;;1.13;;
44512;SDS011;30219;50.588;9.504;2022-09-09T06:11:16;6.47;;;1.30;;
44512;SDS011;30219;50.588;9.504;2022-09-09T06:13:46;4.60;;;1.15;;
44512;SDS011;30219;50.588;9.504;2022-09-09T06:16:14;6.78;;;1.20;;
44512;SDS011;30219;50.588;9.504;2022-09-09T06:18:41;4.90;;;1.00;;
44512;SDS011;30219;50.588;9.504;2022-09-09T06:21:09;7.13;;;1.20;;
44512;SDS011;30219;50.588;9.504;2022-09-09T06:23:44;5.72;;;1.15;;
44512;SDS011;30219;50.588;9.504;2022-09-09T06:26:11;6.60;;;1.30;;
44512;SDS011;30219;50.588;9.504;2022-09-09T06:28:39;6.13;;;1.27;;
44512;SDS011;30219;50.588;9.504;2022-09-09T06:31:08;8.10;;;1.40;;
44512;SDS011;30219;50.588;9.504;2022-09-09T06:33:39;4.20;;;1.08;;
44512;SDS011;30219;50.588;9.504;2022-09-09T06:36:11;5.95;;;1.10;;
44512;SDS011;30219;50.588;9.504;2022-09-09T06:38:38;8.10;;;1.48;;
44512;SDS011;30219;50.588;9.504;2022-09-09T06:41:04;5.18;;;1.58;;
44512;SDS011;30219;50.588;9.504;2022-09-09T06:43:30;4.88;;;1.10;;
44512;SDS011;30219;50.588;9.504;2022-09-09T06:46:08;6.78;;;1.75;;
44512;SDS011;30219;50.588;9.504;2022-09-09T06:48:36;4.13;;;1.20;;
44512;SDS011;30219;50.588;9.504;2022-09-09T06:53:38;5.32;;;1.40;;
44512;SDS011;30219;50.588;9.504;2022-09-09T06:56:19;7.95;;;1.10;;
44512;SDS011;30219;50.588;9.504;2022-09-09T06:58:50;6.68;;;2.10;;
44512;SDS011;30219;50.588;9.504;2022-09-09T07:01:36;5.15;;;1.35;;
44512;SDS011;30219;50.588;9.504;2022-09-09T07:04:04;5.18;;;1.42;;
44512;SDS011;30219;50.588;9.504;2022-09-09T07:06:33;5.22;;;1.23;;
44512;SDS011;30219;50.588;9.504;2022-09-09T07:09:02;6.82;;;1.40;;
44512;SDS011;30219;50.588;9.504;2022-09-09T07:11:40;5.97;;;1.55;;
44512;SDS011;30219;50.588;9.504;2022-09-09T07:14:13;5.57;;;1.30;;
44512;SDS011;30219;50.588;9.504;2022-09-09T07:16:40;5.90;;;1.48;;
44512;SDS011;30219;50.588;9.504;2022-09-09T07:19:09;5.65;;;1.63;;
44512;SDS011;30219;50.588;9.504;2022-09-09T07:21:36;3.67;;;1.00;;
44512;SDS011;30219;50.588;9.504;2022-09-09T07:24:01;3.75;;;0.82;;
44512;SDS011;30219;50.588;9.504;2022-09-09T07:26:28;3.28;;;0.80;;
44512;SDS011;30219;50.588;9.504;2022-09-09T07:28:55;3.05;;;1.05;;
44512;SDS011;30219;50.588;9.504;2022-09-09T07:31:23;4.55;;;1.10;;
44512;SDS011;30219;50.588;9.504;2022-09-09T07:33:55;3.40;;;0.90;;
44512;SDS011;30219;50.588;9.504;2022-09-09T07:36:22;4.30;;;1.25;;
44512;SDS011;30219;50.588;9.504;2022-09-09T07:38:56;5.85;;;1.48;;
44512;SDS011;30219;50.588;9.504;2022-09-09T07:41:29;5.97;;;1.20;;
44512;SDS011;30219;50.588;9.504;2022-09-09T07:43:58;4.15;;;1.48;;
44512;SDS011;30219;50.588;9.504;2022-09-09T07:46:25;6.47;;;1.70;;
44512;SDS011;30219;50.588;9.504;2022-09-09T07:48:52;6.80;;;1.50;;
44512;SDS011;30219;50.588;9.504;2022-09-09T07:51:20;6.47;;;1.15;;
44512;SDS011;30219;50.588;9.504;2022-09-09T07:53:48;8.15;;;1.50;;
44512;SDS011;30219;50.588;9.504;2022-09-09T07:56:17;8.55;;;1.52;;
44512;SDS011;30219;50.588;9.504;2022-09-09T07:58:46;5.63;;;1.30;;
44512;SDS011;30219;50.588;9.504;2022-09-09T08:01:13;8.32;;;1.92;;
44512;SDS011;30219;50.588;9.504;2022-09-09T08:03:45;6.45;;;1.85;;
44512;SDS011;30219;50.588;9.504;2022-09-09T08:06:11;6.15;;;1.48;;
44512;SDS011;30219;50.588;9.504;2022-09-09T08:08:37;7.20;;;1.20;;
44512;SDS011;30219;50.588;9.504;2022-09-09T08:11:07;3.85;;;1.10;;
44512;SDS011;30219;50.588;9.504;2022-09-09T08:13:35;7.47;;;1.38;;
44512;SDS011;30219;50.588;9.504;2022-09-09T08:16:08;7.78;;;1.42;;
44512;SDS011;30219;50.588;9.504;2022-09-09T08:18:36;10.35;;;1.77;;
44512;SDS011;30219;50.588;9.504;2022-09-09T08:21:07;8.30;;;1.20;;
44512;SDS011;30219;50.588;9.504;2022-09-09T08:23:40;4.70;;;1.17;;
44512;SDS011;30219;50.588;9.504;2022-09-09T08:26:07;5.70;;;1.42;;
44512;SDS011;30219;50.588;9.504;2022-09-09T08:28:42;9.50;;;1.50;;
44512;SDS011;30219;50.588;9.504;2022-09-09T08:31:15;3.72;;;1.20;;
44512;SDS011;30219;50.588;9.504;2022-09-09T08:33:43;3.28;;;1.00;;
44512;SDS011;30219;50.588;9.504;2022-09-09T08:36:10;7.20;;;1.10;;
44512;SDS011;30219;50.588;9.504;2022-09-09T08:38:38;9.73;;;1.40;;
44512;SDS011;30219;50.588;9.504;2022-09-09T08:41:07;7.95;;;1.95;;
44512;SDS011;30219;50.588;9.504;2022-09-09T08:43:48;3.65;;;1.10;;
44512;SDS011;30219;50.588;9.504;2022-09-09T08:49:13;4.50;;;1.20;;
44512;SDS011;30219;50.588;9.504;2022-09-09T08:51:41;6.07;;;1.50;;
44512;SDS011;30219;50.588;9.504;2022-09-09T08:54:07;6.10;;;1.48;;
44512;SDS011;30219;50.588;9.504;2022-09-09T08:56:35;5.75;;;1.00;;
44512;SDS011;30219;50.588;9.504;2022-09-09T08:59:01;4.50;;;1.20;;
44512;SDS011;30219;50.588;9.504;2022-09-09T09:04:26;4.55;;;1.20;;
44512;SDS011;30219;50.588;9.504;2022-09-09T09:07:12;8.55;;;1.33;;
44512;SDS011;30219;50.588;9.504;2022-09-09T09:10:25;8.60;;;1.67;;
44512;SDS011;30219;50.588;9.504;2022-09-09T09:12:55;6.72;;;1.20;;
44512;SDS011;30219;50.588;9.504;2022-09-09T09:15:23;8.90;;;1.27;;
44512;SDS011;30219;50.588;9.504;2022-09-09T09:17:50;8.73;;;1.80;;
44512;SDS011;30219;50.588;9.504;2022-09-09T09:20:16;6.85;;;1.40;;
44512;SDS011;30219;50.588;9.504;2022-09-09T09:22:55;4.45;;;1.20;;
44512;SDS011;30219;50.588;9.504;2022-09-09T09:25:34;8.93;;;2.03;;
44512;SDS011;30219;50.588;9.504;2022-09-09T09:30:50;8.32;;;1.38;;
44512;SDS011;30219;50.588;9.504;2022-09-09T09:35:49;6.55;;;1.13;;
44512;SDS011;30219;50.588;9.504;2022-09-09T09:38:23;5.35;;;1.10;;
44512;SDS011;30219;50.588;9.504;2022-09-09T09:40:52;5.28;;;1.55;;
44512;SDS011;30219;50.588;9.504;2022-09-09T09:43:36;7.27;;;1.70;;
44512;SDS011;30219;50.588;9.504;2022-09-09T09:46:04;8.15;;;1.35;;
44512;SDS011;30219;50.588;9.504;2022-09-09T09:48:42;9.35;;;1.45;;
44512;SDS011;30219;50.588;9.504;2022-09-09T09:51:11;8.23;;;1.15;;
44512;SDS011;30219;50.588;9.504;2022-09-09T09:53:41;6.78;;;1.20;;
44512;SDS011;30219;50.588;9.504;2022-09-09T09:56:08;8.35;;;1.25;;
44512;SDS011;30219;50.588;9.504;2022-09-09T09:58:56;4.60;;;1.10;;
44512;SDS011;30219;50.588;9.504;2022-09-09T10:01:22;6.35;;;1.27;;
44512;SDS011;30219;50.588;9.504;2022-09-09T10:04:02;7.13;;;2.17;;
44512;SDS011;30219;50.588;9.504;2022-09-09T10:06:58;8.80;;;1.60;;
44512;SDS011;30219;50.588;9.504;2022-09-09T10:09:34;6.88;;;1.80;;
44512;SDS011;30219;50.588;9.504;2022-09-09T10:12:02;5.63;;;1.58;;
44512;SDS011;30219;50.588;9.504;2022-09-09T10:17:24;8.15;;;1.42;;
44512;SDS011;30219;50.588;9.504;2022-09-09T10:23:04;9.20;;;1.50;;
44512;SDS011;30219;50.588;9.504;2022-09-09T10:28:36;4.30;;;1.17;;
44512;SDS011;30219;50.588;9.504;2022-09-09T10:36:54;6.47;;;1.80;;
44512;SDS011;30219;50.588;9.504;2022-09-09T10:42:13;7.45;;;1.10;;
44512;SDS011;30219;50.588;9.504;2022-09-09T10:55:35;5.70;;;1.05;;
44512;SDS011;30219;50.588;9.504;2022-09-09T10:58:09;5.53;;;1.23;;
44512;SDS011;30219;50.588;9.504;2022-09-09T11:00:41;4.38;;;1.30;;
44512;SDS011;30219;50.588;9.504;2022-09-09T11:03:20;5.07;;;1.80;;
44512;SDS011;30219;50.588;9.504;2022-09-09T11:05:51;7.88;;;1.20;;
44512;SDS011;30219;50.588;9.504;2022-09-09T11:08:23;6.15;;;1.30;;
44512;SDS011;30219;50.588;9.504;2022-09-09T11:13:43;3.63;;;1.00;;
44512;SDS011;30219;50.588;9.504;2022-09-09T11:16:21;3.42;;;1.08;;
44512;SDS011;30219;50.588;9.504;2022-09-09T11:19:00;8.18;;;1.20;;
44512;SDS011;30219;50.588;9.504;2022-09-09T11:21:31;2.22;;;0.63;;
44512;SDS011;30219;50.588;9.504;2022-09-09T11:24:14;4.35;;;0.82;;
44512;SDS011;30219;50.588;9.504;2022-09-09T11:26:55;4.15;;;1.10;;
44512;SDS011;30219;50.588;9.504;2022-09-09T11:32:38;5.97;;;1.05;;
44512;SDS011;30219;50.588;9.504;2022-09-09T11:36:30;3.90;;;1.17;;
44512;SDS011;30219;50.588;9.504;2022-09-09T11:38:50;5.30;;;1.10;;
44512;SDS011;30219;50.588;9.504;2022-09-09T11:41:17;3.40;;;1.00;;
44512;SDS011;30219;50.588;9.504;2022-09-09T11:43:46;6.20;;;0.90;;
44512;SDS011;30219;50.588;9.504;2022-09-09T11:46:31;7.55;;;1.42;;
44512;SDS011;30219;50.588;9.504;2022-09-09T11:49:02;4.35;;;0.90;;
44512;SDS011;30219;50.588;9.504;2022-09-09T11:51:29;6.20;;;0.90;;
44512;SDS011;30219;50.588;9.504;2022-09-09T11:53:58;8.20;;;1.17;;
44512;SDS011;30219;50.588;9.504;2022-09-09T11:56:42;5.30;;;0.98;;
44512;SDS011;30219;50.588;9.504;2022-09-09T11:59:26;4.43;;;1.10;;
44512;SDS011;30219;50.588;9.504;2022-09-09T12:04:32;4.40;;;1.00;;
44512;SDS011;30219;50.588;9.504;2022-09-09T12:07:48;5.07;;;1.13;;
44512;SDS011;30219;50.588;9.504;2022-09-09T12:12:43;7.18;;;1.00;;
44512;SDS011;30219;50.588;9.504;2022-09-09T12:17:47;3.95;;;1.33;;
44512;SDS011;30219;50.588;9.504;2022-09-09T12:20:14;2.35;;;0.70;;
44512;SDS011;30219;50.588;9.504;2022-09-09T12:25:17;6.75;;;1.42;;
44512;SDS011;30219;50.588;9.504;2022-09-09T12:27:56;3.13;;;0.80;;
44512;SDS011;30219;50.588;9.504;2022-09-09T12:30:27;5.90;;;0.82;;
44512;SDS011;30219;50.588;9.504;2022-09-09T12:33:16;5.93;;;1.02;;
44512;SDS011;30219;50.588;9.504;2022-09-09T12:35:44;4.82;;;1.00;;
44512;SDS011;30219;50.588;9.504;2022-09-09T12:38:17;6.80;;;1.45;;
44512;SDS011;30219;50.588;9.504;2022-09-09T12:40:55;3.75;;;1.05;;
44512;SDS011;30219;50.588;9.504;2022-09-09T12:43:22;6.03;;;1.10;;
44512;SDS011;30219;50.588;9.504;2022-09-09T12:45:49;4.60;;;1.08;;
44512;SDS011;30219;50.588;9.504;2022-09-09T12:48:22;4.15;;;1.10;;
44512;SDS011;30219;50.588;9.504;2022-09-09T12:51:27;4.70;;;0.85;;
44512;SDS011;30219;50.588;9.504;2022-09-09T12:53:55;3.25;;;0.80;;
44512;SDS011;30219;50.588;9.504;2022-09-09T12:56:28;3.20;;;0.90;;
44512;SDS011;30219;50.588;9.504;2022-09-09T12:58:56;5.78;;;0.93;;
44512;SDS011;30219;50.588;9.504;2022-09-09T13:03:53;5.85;;;0.95;;
44512;SDS011;30219;50.588;9.504;2022-09-09T13:06:20;2.58;;;0.60;;
44512;SDS011;30219;50.588;9.504;2022-09-09T13:08:48;5.72;;;0.98;;
44512;SDS011;30219;50.588;9.504;2022-09-09T13:11:25;6.53;;;1.05;;
44512;SDS011;30219;50.588;9.504;2022-09-09T13:13:55;5.97;;;1.00;;
44512;SDS011;30219;50.588;9.504;2022-09-09T13:16:26;5.43;;;1.02;;
44512;SDS011;30219;50.588;9.504;2022-09-09T13:18:57;5.57;;;0.85;;
44512;SDS011;30219;50.588;9.504;2022-09-09T13:21:33;4.20;;;1.08;;
44512;SDS011;30219;50.588;9.504;2022-09-09T13:23:59;5.50;;;0.88;;
44512;SDS011;30219;50.588;9.504;2022-09-09T13:26:28;7.07;;;1.17;;
44512;SDS011;30219;50.588;9.504;2022-09-09T13:28:55;7.78;;;1.35;;
44512;SDS011;30219;50.588;9.504;2022-09-09T13:31:35;4.80;;;1.23;;
44512;SDS011;30219;50.588;9.504;2022-09-09T13:34:11;4.30;;;0.93;;
44512;SDS011;30219;50.588;9.504;2022-09-09T13:36:39;6.40;;;0.90;;
44512;SDS011;30219;50.588;9.504;2022-09-09T13:39:13;5.03;;;1.00;;
44512;SDS011;30219;50.588;9.504;2022-09-09T13:41:42;6.50;;;0.88;;
44512;SDS011;30219;50.588;9.504;2022-09-09T13:44:17;5.63;;;1.10;;
44512;SDS011;30219;50.588;9.504;2022-09-09T13:46:58;5.45;;;1.23;;
44512;SDS011;30219;50.588;9.504;2022-09-09T13:49:29;5.55;;;0.77;;
44512;SDS011;30219;50.588;9.504;2022-09-09T13:52:14;4.90;;;0.70;;
44512;SDS011;30219;50.588;9.504;2022-09-09T13:54:50;3.03;;;0.70;;
44512;SDS011;30219;50.588;9.504;2022-09-09T13:57:21;3.80;;;0.90;;
44512;SDS011;30219;50.588;9.504;2022-09-09T13:59:49;5.05;;;0.90;;
44512;SDS011;30219;50.588;9.504;2022-09-09T14:02:15;4.97;;;0.90;;
44512;SDS011;30219;50.588;9.504;2022-09-09T14:04:41;4.38;;;0.93;;
44512;SDS011;30219;50.588;9.504;2022-09-09T14:07:09;3.25;;;0.73;;
44512;SDS011;30219;50.588;9.504;2022-09-09T14:09:40;5.13;;;1.08;;
44512;SDS011;30219;50.588;9.504;2022-09-09T14:12:12;4.20;;;1.00;;
44512;SDS011;30219;50.588;9.504;2022-09-09T14:14:40;5.15;;;0.93;;
44512;SDS011;30219;50.588;9.504;2022-09-09T14:17:07;4.57;;;1.52;;
44512;SDS011;30219;50.588;9.504;2022-09-09T14:19:32;5.03;;;1.08;;
44512;SDS011;30219;50.588;9.504;2022-09-09T14:21:58;4.15;;;0.95;;
44512;SDS011;30219;50.588;9.504;2022-09-09T14:24:23;6.78;;;1.77;;
44512;SDS011;30219;50.588;9.504;2022-09-09T14:26:50;4.70;;;0.93;;
44512;SDS011;30219;50.588;9.504;2022-09-09T14:29:15;7.93;;;1.15;;
44512;SDS011;30219;50.588;9.504;2022-09-09T14:31:41;4.20;;;0.80;;
44512;SDS011;30219;50.588;9.504;2022-09-09T14:34:06;8.30;;;0.90;;
44512;SDS011;30219;50.588;9.504;2022-09-09T14:36:32;2.50;;;0.57;;
44512;SDS011;30219;50.588;9.504;2022-09-09T14:38:58;3.42;;;0.90;;
44512;SDS011;30219;50.588;9.504;2022-09-09T14:41:24;3.15;;;0.73;;
44512;SDS011;30219;50.588;9.504;2022-09-09T14:43:50;2.55;;;0.70;;
44512;SDS011;30219;50.588;9.504;2022-09-09T14:46:17;8.13;;;1.38;;
44512;SDS011;30219;50.588;9.504;2022-09-09T14:48:44;4.72;;;0.82;;
44512;SDS011;30219;50.588;9.504;2022-09-09T14:53:38;4.28;;;1.30;;
44512;SDS011;30219;50.588;9.504;2022-09-09T14:56:19;3.70;;;0.90;;
44512;SDS011;30219;50.588;9.504;2022-09-09T14:58:48;4.45;;;0.73;;
44512;SDS011;30219;50.588;9.504;2022-09-09T15:01:15;4.13;;;0.77;;
44512;SDS011;30219;50.588;9.504;2022-09-09T15:03:43;4.38;;;0.85;;
44512;SDS011;30219;50.588;9.504;2022-09-09T15:06:17;4.78;;;0.95;;
44512;SDS011;30219;50.588;9.504;2022-09-09T15:08:44;2.65;;;0.60;;
44512;SDS011;30219;50.588;9.504;2022-09-09T15:11:10;4.40;;;0.80;;
44512;SDS011;30219;50.588;9.504;2022-09-09T15:13:38;3.13;;;0.73;;
44512;SDS011;30219;50.588;9.504;2022-09-09T15:16:17;3.38;;;0.60;;
44512;SDS011;30219;50.588;9.504;2022-09-09T15:18:43;2.90;;;0.70;;
44512;SDS011;30219;50.588;9.504;2022-09-09T15:21:11;3.42;;;0.40;;
44512;SDS011;30219;50.588;9.504;2022-09-09T15:23:42;4.97;;;0.60;;
44512;SDS011;30219;50.588;9.504;2022-09-09T15:26:08;1.60;;;0.50;;
44512;SDS011;30219;50.588;9.504;2022-09-09T15:28:35;1.85;;;0.60;;
44512;SDS011;30219;50.588;9.504;2022-09-09T15:31:21;3.80;;;1.00;;
44512;SDS011;30219;50.588;9.504;2022-09-09T15:33:52;3.25;;;0.60;;
44512;SDS011;30219;50.588;9.504;2022-09-09T15:36:25;2.70;;;0.60;;
44512;SDS011;30219;50.588;9.504;2022-09-09T15:38:56;3.17;;;0.60;;
44512;SDS011;30219;50.588;9.504;2022-09-09T15:41:23;4.40;;;0.93;;
44512;SDS011;30219;50.588;9.504;2022-09-09T15:43:49;2.80;;;0.60;;
44512;SDS011;30219;50.588;9.504;2022-09-09T15:48:43;4.28;;;0.93;;
44512;SDS011;30219;50.588;9.504;2022-09-09T15:51:10;1.90;;;0.60;;
44512;SDS011;30219;50.588;9.504;2022-09-09T15:53:39;4.30;;;0.90;;
44512;SDS011;30219;50.588;9.504;2022-09-09T15:56:05;2.88;;;0.60;;
44512;SDS011;30219;50.588;9.504;2022-09-09T15:58:38;4.00;;;0.60;;
44512;SDS011;30219;50.588;9.504;2022-09-09T16:01:08;2.47;;;0.70;;
44512;SDS011;30219;50.588;9.504;2022-09-09T16:03:40;4.55;;;0.57;;
44512;SDS011;30219;50.588;9.504;2022-09-09T16:06:07;5.00;;;1.13;;
44512;SDS011;30219;50.588;9.504;2022-09-09T16:08:35;5.28;;;1.05;;
44512;SDS011;30219;50.588;9.504;2022-09-09T16:11:36;3.28;;;0.82;;
44512;SDS011;30219;50.588;9.504;2022-09-09T16:13:55;5.82;;;0.88;;
44512;SDS011;30219;50.588;9.504;2022-09-09T16:16:22;4.25;;;0.70;;
44512;SDS011;30219;50.588;9.504;2022-09-09T16:18:50;3.00;;;0.60;;
44512;SDS011;30219;50.588;9.504;2022-09-09T16:21:21;6.28;;;1.00;;
44512;SDS011;30219;50.588;9.504;2022-09-09T16:23:55;3.47;;;0.60;;
44512;SDS011;30219;50.588;9.504;2022-09-09T16:26:22;3.45;;;0.65;;
44512;SDS011;30219;50.588;9.504;2022-09-09T16:28:48;2.97;;;0.65;;
44512;SDS011;30219;50.588;9.504;2022-09-09T16:31:21;2.03;;;0.45;;
44512;SDS011;30219;50.588;9.504;2022-09-09T16:33:48;3.47;;;0.65;;
44512;SDS011;30219;50.588;9.504;2022-09-09T16:36:16;3.97;;;0.70;;
44512;SDS011;30219;50.588;9.504;2022-09-09T16:38:44;4.03;;;0.77;;
44512;SDS011;30219;50.588;9.504;2022-09-09T16:41:10;3.90;;;0.60;;
44512;SDS011;30219;50.588;9.504;2022-09-09T16:43:37;3.75;;;0.68;;
44512;SDS011;30219;50.588;9.504;2022-09-09T16:46:03;5.00;;;0.70;;
44512;SDS011;30219;50.588;9.504;2022-09-09T16:48:36;3.92;;;0.85;;
44512;SDS011;30219;50.588;9.504;2022-09-09T16:51:02;3.58;;;0.65;;
44512;SDS011;30219;50.588;9.504;2022-09-09T16:53:31;4.43;;;0.70;;
44512;SDS011;30219;50.588;9.504;2022-09-09T16:55:58;4.03;;;0.75;;
44512;SDS011;30219;50.588;9.504;2022-09-09T16:58:29;4.72;;;0.70;;